Time;durP1;ratioP1;P1;durP2;ratioP2;P2;SDS_P1;SDS_P2;PMS_P1;PMS_P2;Temp;Humidity;BMP_temperature;BMP_pressure;BME280_temperature;BME280_humidity;BME280_pressure;Samples;Min_cycle;Max_cycle;Signal;HPM_P1;HPM_P2
2021/06/26 00:01:55;;;;;;;36.53;27.20;;;17.00;91.40;;;;;;5097179;28;20024;-86
2021/06/26 00:04:20;;;;;;;33.50;27.10;;;17.00;91.40;;;;;;5096775;28;20036;-84
2021/06/26 00:06:46;;;;;;;35.67;27.90;;;17.00;91.40;;;;;;5096005;28;20020;-85
2021/06/26 00:09:11;;;;;;;35.78;27.63;;;16.90;91.30;;;;;;5096249;28;20024;-84
2021/06/26 00:11:43;;;;;;;35.58;26.17;;;16.90;91.40;;;;;;5095541;28;20016;-85
2021/06/26 00:14:09;;;;;;;40.97;29.25;;;16.90;91.40;;;;;;5097085;28;20445;-85
2021/06/26 00:16:35;;;;;;;41.40;30.50;;;16.90;91.50;;;;;;5096917;28;20051;-84
2021/06/26 00:19:01;;;;;;;37.42;28.65;;;16.90;91.50;;;;;;5096760;28;20036;-86
2021/06/26 00:21:27;;;;;;;39.38;28.05;;;16.80;91.50;;;;;;5097566;28;20024;-85
2021/06/26 00:23:53;;;;;;;38.75;28.70;;;16.80;91.80;;;;;;5096233;28;20028;-85
2021/06/26 00:26:19;;;;;;;33.65;26.70;;;16.80;91.50;;;;;;5095614;28;20049;-86
2021/06/26 00:28:46;;;;;;;33.65;27.30;;;16.70;91.50;;;;;;5095662;28;20031;-86
2021/06/26 00:31:12;;;;;;;35.25;26.13;;;16.70;91.50;;;;;;5095995;28;20521;-85
2021/06/26 00:33:38;;;;;;;38.78;28.00;;;16.70;91.50;;;;;;5095867;28;20020;-87
2021/06/26 00:36:07;;;;;;;33.40;26.60;;;16.60;91.40;;;;;;5095945;28;20032;-84
2021/06/26 00:38:32;;;;;;;37.22;28.05;;;16.60;91.40;;;;;;5095563;28;20381;-87
2021/06/26 00:40:58;;;;;;;43.10;30.27;;;16.50;91.50;;;;;;5097798;28;20034;-87
2021/06/26 00:43:24;;;;;;;38.05;28.85;;;16.50;91.50;;;;;;5096701;28;20384;-84
2021/06/26 00:45:50;;;;;;;37.00;27.27;;;16.50;91.50;;;;;;5095343;28;20020;-86
2021/06/26 00:48:16;;;;;;;36.58;27.65;;;16.50;91.60;;;;;;5095996;28;20054;-89
2021/06/26 00:50:44;;;;;;;34.47;26.13;;;16.40;91.60;;;;;;5097361;28;20027;-89
2021/06/26 00:53:10;;;;;;;40.30;29.00;;;16.40;91.90;;;;;;5096608;28;20123;-88
2021/06/26 00:55:36;;;;;;;38.17;27.90;;;16.40;91.60;;;;;;5096258;28;20549;-88
2021/06/26 00:58:02;;;;;;;35.28;27.15;;;16.30;91.60;;;;;;5095447;28;20024;-85
2021/06/26 01:00:29;;;;;;;37.17;27.70;;;16.30;91.60;;;;;;5094365;28;20025;-85
2021/06/26 01:02:55;;;;;;;40.03;28.88;;;16.20;91.50;;;;;;5096198;28;20376;-84
2021/06/26 01:05:21;;;;;;;38.40;28.27;;;16.20;91.80;;;;;;5095353;28;20020;-84
2021/06/26 01:07:47;;;;;;;36.40;27.48;;;16.20;91.60;;;;;;5094697;28;20024;-84
2021/06/26 01:10:14;;;;;;;36.13;26.63;;;16.20;91.70;;;;;;5094841;28;20020;-85
2021/06/26 01:12:39;;;;;;;33.83;26.02;;;16.20;91.70;;;;;;5096255;28;20456;-85
2021/06/26 01:15:08;;;;;;;36.15;26.65;;;16.20;91.80;;;;;;5095417;28;20020;-84
2021/06/26 01:17:34;;;;;;;34.55;25.60;;;16.10;91.80;;;;;;5096766;28;20028;-86
2021/06/26 01:20:02;;;;;;;36.67;27.45;;;16.10;91.80;;;;;;5100672;28;20481;-85
2021/06/26 01:22:28;;;;;;;39.38;29.25;;;16.10;91.90;;;;;;5098794;28;20037;-85
2021/06/26 01:24:54;;;;;;;40.75;28.73;;;16.10;92.20;;;;;;5102843;28;20453;-84
2021/06/26 01:27:20;;;;;;;37.17;28.25;;;16.10;92.00;;;;;;5109147;28;20039;-87
2021/06/26 01:29:52;;;;;;;36.72;27.52;;;16.10;92.00;;;;;;5104029;28;20020;-87
2021/06/26 01:32:19;;;;;;;38.72;28.48;;;16.10;92.00;;;;;;5098969;28;20092;-87
2021/06/26 01:34:44;;;;;;;36.83;26.90;;;16.00;92.00;;;;;;5097467;28;20448;-85
2021/06/26 01:37:11;;;;;;;33.95;25.50;;;16.00;92.20;;;;;;5098626;28;20114;-87
2021/06/26 01:39:37;;;;;;;36.22;25.67;;;16.00;92.00;;;;;;5099879;28;20090;-86
2021/06/26 01:42:03;;;;;;;35.45;25.38;;;16.00;92.00;;;;;;5099534;28;20074;-86
2021/06/26 01:44:29;;;;;;;35.78;24.70;;;16.00;92.00;;;;;;5099413;28;20077;-85
2021/06/26 01:46:54;;;;;;;40.03;27.42;;;15.90;92.00;;;;;;5099916;28;20055;-86
2021/06/26 01:49:20;;;;;;;38.75;27.95;;;16.00;92.10;;;;;;5106973;28;20030;-85
2021/06/26 01:51:46;;;;;;;39.00;28.15;;;15.90;92.10;;;;;;5119224;28;20032;-86
2021/06/26 01:54:13;;;;;;;42.05;29.42;;;15.90;92.10;;;;;;5116710;28;20031;-85
2021/06/26 01:56:39;;;;;;;40.75;28.75;;;15.90;92.10;;;;;;5104766;28;20032;-86
2021/06/26 01:59:05;;;;;;;37.20;26.08;;;15.90;92.20;;;;;;5099645;28;20522;-86
2021/06/26 02:01:33;;;;;;;40.40;27.80;;;15.90;92.10;;;;;;5098618;28;20016;-86
2021/06/26 02:03:59;;;;;;;41.47;30.38;;;15.90;92.20;;;;;;5097406;28;20065;-86
2021/06/26 02:06:25;;;;;;;41.67;30.17;;;15.90;92.20;;;;;;5097689;28;20035;-87
2021/06/26 02:08:51;;;;;;;43.63;29.83;;;15.90;92.20;;;;;;5097861;28;20024;-87
2021/06/26 02:11:16;;;;;;;39.05;29.85;;;15.90;92.20;;;;;;5096385;28;20340;-84
2021/06/26 02:13:43;;;;;;;40.30;29.17;;;15.90;92.20;;;;;;5107508;28;20020;-84
2021/06/26 02:16:08;;;;;;;44.05;31.10;;;15.80;92.20;;;;;;5099577;28;20047;-86
2021/06/26 02:18:34;;;;;;;44.33;30.88;;;15.80;92.30;;;;;;5098149;28;20389;-88
2021/06/26 02:21:00;;;;;;;44.42;29.85;;;15.80;92.20;;;;;;5098590;28;20353;-86
2021/06/26 02:23:26;;;;;;;42.38;30.50;;;15.90;92.30;;;;;;5098573;28;20020;-87
2021/06/26 02:25:52;;;;;;;40.10;29.73;;;15.90;92.30;;;;;;5098093;28;20090;-88
2021/06/26 02:28:18;;;;;;;41.13;29.88;;;15.80;92.30;;;;;;5098050;28;20461;-86
2021/06/26 02:30:43;;;;;;;41.45;29.23;;;15.80;92.30;;;;;;5096302;28;20051;-87
2021/06/26 02:33:09;;;;;;;40.65;29.73;;;15.80;92.30;;;;;;5097580;28;20022;-87
2021/06/26 02:35:34;;;;;;;42.95;30.98;;;15.80;92.30;;;;;;5099241;28;20118;-86
2021/06/26 02:38:00;;;;;;;40.63;30.58;;;15.80;92.30;;;;;;5100822;28;20020;-85
2021/06/26 02:40:26;;;;;;;45.58;30.92;;;15.70;92.30;;;;;;5100266;28;20027;-88
2021/06/26 02:42:51;;;;;;;43.55;31.23;;;15.70;92.30;;;;;;5097388;28;20024;-87
2021/06/26 02:45:17;;;;;;;44.47;32.25;;;15.70;92.30;;;;;;5097017;28;20020;-88
2021/06/26 02:47:43;;;;;;;45.15;33.30;;;15.70;92.30;;;;;;5097422;28;20028;-87
2021/06/26 02:50:10;;;;;;;54.13;35.88;;;15.70;92.40;;;;;;5098057;28;20022;-87
2021/06/26 02:52:36;;;;;;;55.72;35.83;;;15.70;92.50;;;;;;5097327;28;20070;-85
2021/06/26 02:55:03;;;;;;;47.55;33.55;;;15.80;92.60;;;;;;5096910;28;20028;-86
2021/06/26 02:57:29;;;;;;;45.92;32.78;;;15.70;92.60;;;;;;5096401;28;20108;-85
2021/06/26 02:59:55;;;;;;;45.22;31.80;;;15.70;92.60;;;;;;5095760;28;20051;-87
2021/06/26 03:02:20;;;;;;;40.75;30.33;;;15.70;92.50;;;;;;5098056;28;20028;-86
2021/06/26 03:04:46;;;;;;;40.53;29.77;;;15.80;92.50;;;;;;5096411;28;20444;-87
2021/06/26 03:07:12;;;;;;;40.50;30.33;;;15.70;92.40;;;;;;5095757;28;20122;-88
2021/06/26 03:09:38;;;;;;;48.45;33.38;;;15.70;92.40;;;;;;5096250;28;20060;-86
2021/06/26 03:12:04;;;;;;;50.65;35.03;;;15.70;92.50;;;;;;5095527;28;20027;-86
2021/06/26 03:14:30;;;;;;;43.95;31.60;;;15.70;92.50;;;;;;5097707;28;20035;-86
2021/06/26 03:16:56;;;;;;;48.83;33.30;;;15.70;92.60;;;;;;5102819;28;20028;-86
2021/06/26 03:19:21;;;;;;;50.15;34.55;;;15.80;92.60;;;;;;5107395;28;20047;-85
2021/06/26 03:21:47;;;;;;;48.20;33.40;;;15.80;92.60;;;;;;5097026;28;20020;-86
2021/06/26 03:24:13;;;;;;;42.28;32.10;;;15.80;92.60;;;;;;5096269;28;20071;-86
2021/06/26 03:26:38;;;;;;;49.83;33.50;;;15.80;92.70;;;;;;5095985;28;20032;-84
2021/06/26 03:29:05;;;;;;;47.63;34.33;;;15.90;92.70;;;;;;5095893;28;20027;-86
2021/06/26 03:31:31;;;;;;;50.28;35.83;;;15.90;92.70;;;;;;5095247;28;20020;-86
2021/06/26 03:33:57;;;;;;;50.55;35.30;;;16.00;92.80;;;;;;5095312;28;20024;-86
2021/06/26 03:36:24;;;;;;;51.83;36.47;;;16.00;92.80;;;;;;5095105;28;20483;-85
2021/06/26 03:38:50;;;;;;;49.50;34.17;;;16.00;92.80;;;;;;5094714;28;20107;-87
2021/06/26 03:41:16;;;;;;;49.33;33.85;;;16.10;92.80;;;;;;5095505;28;20024;-87
2021/06/26 03:43:42;;;;;;;48.85;33.53;;;16.10;92.80;;;;;;5094752;28;20089;-87
2021/06/26 03:46:08;;;;;;;57.45;36.58;;;16.10;92.80;;;;;;5095498;28;20096;-86
2021/06/26 03:48:33;;;;;;;56.47;37.55;;;16.20;92.80;;;;;;5096490;28;20016;-87
2021/06/26 03:50:59;;;;;;;48.30;34.58;;;16.20;92.80;;;;;;5096717;28;20020;-86
2021/06/26 03:53:28;;;;;;;50.47;35.13;;;16.20;92.70;;;;;;5107981;28;20020;-86
2021/06/26 03:55:55;;;;;;;50.33;35.83;;;16.20;92.70;;;;;;5117726;28;20039;-85
2021/06/26 03:58:22;;;;;;;55.83;36.60;;;16.30;92.70;;;;;;5109728;28;20028;-88
2021/06/26 04:00:48;;;;;;;49.85;32.88;;;16.30;92.70;;;;;;5095880;28;20507;-87
2021/06/26 04:03:15;;;;;;;45.10;32.80;;;16.30;92.70;;;;;;5095958;28;20009;-86
2021/06/26 04:05:41;;;;;;;50.10;34.25;;;16.30;92.60;;;;;;5095814;28;20036;-86
2021/06/26 04:08:07;;;;;;;50.83;34.95;;;16.40;92.60;;;;;;5094674;28;20039;-87
2021/06/26 04:10:32;;;;;;;50.67;34.53;;;16.40;92.60;;;;;;5097086;28;20039;-85
2021/06/26 04:12:58;;;;;;;45.50;33.47;;;16.50;92.60;;;;;;5095400;28;20027;-83
2021/06/26 04:15:23;;;;;;;45.92;33.38;;;16.50;92.50;;;;;;5094375;28;20411;-85
2021/06/26 04:17:49;;;;;;;46.08;31.80;;;16.50;92.80;;;;;;5094045;28;20032;-86
2021/06/26 04:20:14;;;;;;;46.33;32.53;;;16.60;92.40;;;;;;5093702;28;20025;-85
2021/06/26 04:22:44;;;;;;;46.05;31.45;;;16.60;92.30;;;;;;5093737;28;20036;-85
2021/06/26 04:25:11;;;;;;;40.53;29.00;;;16.60;92.20;;;;;;5094056;28;20027;-86
2021/06/26 04:27:36;;;;;;;41.08;29.45;;;16.70;92.20;;;;;;5094914;28;20031;-85
2021/06/26 04:30:03;;;;;;;42.88;29.67;;;16.70;92.20;;;;;;5094223;28;20024;-88
2021/06/26 04:32:29;;;;;;;45.35;31.67;;;16.70;92.10;;;;;;5093947;28;20032;-87
2021/06/26 04:34:55;;;;;;;47.28;32.95;;;16.80;92.10;;;;;;5093627;28;20020;-87
2021/06/26 04:37:21;;;;;;;46.80;31.70;;;16.80;92.10;;;;;;5095700;28;20035;-88
2021/06/26 04:39:47;;;;;;;44.10;29.58;;;16.80;92.10;;;;;;5094286;28;20012;-87
2021/06/26 04:42:12;;;;;;;49.13;32.42;;;16.80;92.00;;;;;;5093787;28;20024;-88
2021/06/26 04:44:38;;;;;;;43.20;31.30;;;16.90;92.00;;;;;;5096188;28;20020;-88
2021/06/26 04:47:04;;;;;;;50.38;33.35;;;16.90;92.00;;;;;;5094540;28;20024;-85
2021/06/26 04:49:30;;;;;;;44.97;29.85;;;16.90;92.00;;;;;;5095530;28;20028;-88
2021/06/26 04:51:55;;;;;;;53.92;32.05;;;17.00;92.00;;;;;;5094726;28;20457;-88
2021/06/26 04:54:21;;;;;;;50.47;31.35;;;17.00;92.20;;;;;;5097355;28;20480;-87
2021/06/26 04:56:47;;;;;;;52.22;33.88;;;17.00;91.80;;;;;;5095162;28;20024;-87
2021/06/26 04:59:12;;;;;;;56.72;34.15;;;17.10;92.00;;;;;;5097793;28;20286;-87
2021/06/26 05:01:38;;;;;;;52.92;31.83;;;17.10;91.70;;;;;;5096342;28;20011;-88
2021/06/26 05:04:04;;;;;;;50.58;31.65;;;17.20;91.60;;;;;;5095097;28;20026;-85
2021/06/26 05:06:29;;;;;;;44.50;29.80;;;17.20;91.60;;;;;;5100693;28;20470;-87
2021/06/26 05:08:55;;;;;;;41.10;26.83;;;17.20;91.60;;;;;;5108110;28;20032;-86
2021/06/26 05:11:20;;;;;;;38.38;25.73;;;17.30;91.50;;;;;;5109898;28;20456;-87
2021/06/26 05:13:46;;;;;;;32.15;23.00;;;17.30;91.30;;;;;;5104021;28;20004;-86
2021/06/26 05:16:11;;;;;;;30.52;22.23;;;17.40;91.30;;;;;;5095772;28;20030;-85
2021/06/26 05:18:37;;;;;;;29.48;22.00;;;17.40;91.20;;;;;;5094684;28;20477;-88
2021/06/26 05:21:03;;;;;;;29.52;22.70;;;17.50;91.10;;;;;;5095874;28;20020;-88
2021/06/26 05:23:29;;;;;;;32.50;24.52;;;17.40;91.10;;;;;;5095985;28;20031;-88
2021/06/26 05:25:55;;;;;;;22.90;17.95;;;17.50;91.10;;;;;;5096239;28;20032;-88
2021/06/26 05:28:20;;;;;;;23.08;17.98;;;17.50;91.00;;;;;;5096659;28;20054;-87
2021/06/26 05:30:46;;;;;;;27.92;22.88;;;17.60;90.80;;;;;;5094779;28;20024;-87
2021/06/26 05:33:12;;;;;;;29.42;23.20;;;17.60;90.70;;;;;;5094090;28;20123;-86
2021/06/26 05:35:38;;;;;;;38.92;28.55;;;17.70;90.60;;;;;;5094830;28;20020;-86
2021/06/26 05:38:04;;;;;;;35.72;27.33;;;17.70;90.60;;;;;;5094547;28;20120;-86
2021/06/26 05:40:29;;;;;;;29.52;21.80;;;17.80;90.40;;;;;;5095151;28;20031;-87
2021/06/26 05:42:55;;;;;;;31.00;24.70;;;17.80;90.10;;;;;;5096643;28;20024;-86
2021/06/26 05:45:21;;;;;;;35.75;27.23;;;17.80;90.00;;;;;;5096040;28;20073;-86
2021/06/26 05:47:46;;;;;;;32.55;24.15;;;17.90;90.00;;;;;;5094729;28;20031;-87
2021/06/26 05:50:12;;;;;;;34.28;26.77;;;17.90;90.00;;;;;;5095294;28;20020;-87
2021/06/26 05:52:46;;;;;;;30.10;23.33;;;17.90;89.50;;;;;;5096630;28;20021;-87
2021/06/26 05:55:11;;;;;;;29.25;23.08;;;17.90;88.90;;;;;;5096506;28;20020;-85
2021/06/26 05:57:37;;;;;;;32.63;23.85;;;17.90;87.30;;;;;;5097801;28;20385;-87
2021/06/26 06:00:04;;;;;;;30.15;22.00;;;17.90;88.10;;;;;;5113106;28;20032;-87
2021/06/26 06:02:30;;;;;;;31.58;23.52;;;17.90;87.90;;;;;;5111904;28;20460;-84
2021/06/26 06:04:55;;;;;;;32.42;22.95;;;18.00;88.20;;;;;;5098327;28;20031;-85
2021/06/26 06:07:21;;;;;;;16.70;12.90;;;18.10;88.40;;;;;;5098809;28;20024;-86
2021/06/26 06:09:49;;;;;;;37.67;23.70;;;18.20;85.10;;;;;;5097957;28;20032;-85
2021/06/26 06:12:15;;;;;;;28.17;20.67;;;18.20;85.30;;;;;;5097563;28;20027;-87
2021/06/26 06:14:41;;;;;;;32.65;21.70;;;18.10;85.70;;;;;;5098759;28;20008;-88
2021/06/26 06:17:06;;;;;;;28.88;21.63;;;18.10;86.20;;;;;;5100353;28;20028;-89
2021/06/26 06:19:32;;;;;;;30.77;22.95;;;18.20;86.30;;;;;;5100133;28;20024;-87
2021/06/26 06:21:58;;;;;;;34.65;24.90;;;18.30;86.80;;;;;;5102505;28;20035;-89
2021/06/26 06:24:23;;;;;;;29.70;22.10;;;18.30;87.00;;;;;;5099286;28;20035;-88
2021/06/26 06:27:09;;;;;;;37.80;27.08;;;18.40;86.70;;;;;;5100329;28;20024;-90
2021/06/26 06:29:35;;;;;;;32.00;23.60;;;18.40;87.10;;;;;;5100109;28;20021;-89
2021/06/26 06:32:01;;;;;;;29.13;22.60;;;18.50;86.80;;;;;;5100486;28;20028;-88
2021/06/26 06:34:27;;;;;;;34.53;25.30;;;18.60;86.30;;;;;;5106221;28;20477;-89
2021/06/26 06:36:52;;;;;;;34.78;24.13;;;18.70;85.60;;;;;;5103020;28;20032;-87
2021/06/26 06:39:20;;;;;;;33.08;25.88;;;19.00;82.90;;;;;;5100526;28;20031;-88
2021/06/26 06:41:50;;;;;;;34.72;25.08;;;19.20;84.40;;;;;;5100446;28;20428;-88
2021/06/26 06:44:21;;;;;;;27.27;19.75;;;19.30;83.80;;;;;;5101464;28;20012;-88
2021/06/26 06:46:47;;;;;;;26.27;20.42;;;19.50;80.40;;;;;;5098401;28;20020;-87
2021/06/26 06:49:12;;;;;;;27.42;20.10;;;19.60;81.00;;;;;;5098968;28;20058;-86
2021/06/26 06:51:38;;;;;;;25.27;19.92;;;19.70;80.50;;;;;;5099175;28;20031;-87
2021/06/26 06:54:04;;;;;;;15.63;10.20;;;19.80;78.80;;;;;;5097135;28;20027;-82
2021/06/26 06:56:30;;;;;;;27.30;21.73;;;20.00;76.10;;;;;;5099331;28;20028;-86
2021/06/26 06:58:56;;;;;;;27.95;21.60;;;20.10;77.90;;;;;;5107470;28;20384;-85
2021/06/26 07:01:23;;;;;;;21.67;16.17;;;20.20;78.70;;;;;;5117134;28;20028;-85
2021/06/26 07:03:49;;;;;;;32.45;24.98;;;20.30;76.30;;;;;;5098417;28;20108;-87
2021/06/26 07:06:14;;;;;;;21.25;17.73;;;20.30;77.10;;;;;;5097481;28;20071;-86
2021/06/26 07:08:40;;;;;;;21.58;18.05;;;20.40;77.20;;;;;;5088692;28;20044;-85
2021/06/26 07:11:06;;;;;;;19.38;14.15;;;20.50;77.10;;;;;;5077762;28;20071;-86
2021/06/26 07:13:31;;;;;;;25.60;20.38;;;20.60;71.30;;;;;;5079823;28;20349;-85
2021/06/26 07:15:57;;;;;;;21.60;15.63;;;20.80;75.80;;;;;;5077826;28;20370;-85
2021/06/26 07:18:23;;;;;;;26.48;20.95;;;20.80;73.60;;;;;;5076989;28;20048;-86
2021/06/26 07:20:50;;;;;;;20.50;16.02;;;20.90;74.40;;;;;;5081008;28;20146;-83
2021/06/26 07:23:15;;;;;;;25.35;19.25;;;21.00;75.00;;;;;;5083859;28;20036;-86
2021/06/26 07:25:41;;;;;;;26.75;19.85;;;21.10;75.00;;;;;;5089624;28;20036;-83
2021/06/26 07:28:07;;;;;;;23.73;20.02;;;21.30;74.20;;;;;;5097581;28;20032;-87
2021/06/26 07:30:32;;;;;;;24.77;20.70;;;21.30;73.70;;;;;;5097749;28;20020;-85
2021/06/26 07:32:58;;;;;;;20.52;15.35;;;21.40;73.70;;;;;;5097335;28;20024;-87
2021/06/26 07:35:24;;;;;;;18.27;13.90;;;21.60;72.00;;;;;;5096814;28;20020;-86
2021/06/26 07:37:49;;;;;;;15.20;12.05;;;21.80;71.20;;;;;;5096853;28;22129;-86
2021/06/26 07:40:15;;;;;;;21.95;17.85;;;21.90;71.90;;;;;;5097724;28;20016;-87
2021/06/26 07:42:42;;;;;;;22.30;17.08;;;22.00;71.30;;;;;;5098140;28;20028;-89
2021/06/26 07:45:08;;;;;;;22.15;18.20;;;21.90;70.80;;;;;;5098249;28;20027;-87
2021/06/26 07:47:35;;;;;;;24.95;20.42;;;21.90;70.00;;;;;;5099257;28;20024;-87
2021/06/26 07:50:01;;;;;;;25.45;16.83;;;21.90;69.70;;;;;;5098026;28;20028;-87
2021/06/26 07:52:27;;;;;;;22.27;17.55;;;21.90;70.10;;;;;;5099448;28;20077;-88
2021/06/26 07:54:53;;;;;;;18.98;14.80;;;22.00;71.00;;;;;;5101945;28;20024;-86
2021/06/26 07:57:19;;;;;;;15.85;12.50;;;22.10;70.40;;;;;;5099981;28;20028;-88
2021/06/26 07:59:44;;;;;;;13.18;10.02;;;22.20;69.00;;;;;;5099347;28;20043;-88
2021/06/26 08:02:10;;;;;;;21.85;16.80;;;22.40;68.40;;;;;;5100955;28;20016;-88
2021/06/26 08:04:36;;;;;;;15.38;11.32;;;22.60;65.10;;;;;;5112290;28;20035;-87
2021/06/26 08:07:02;;;;;;;23.77;18.38;;;22.50;65.80;;;;;;5111857;28;20044;-87
2021/06/26 08:09:27;;;;;;;11.20;8.98;;;22.60;66.30;;;;;;5103979;28;20139;-86
2021/06/26 08:11:53;;;;;;;19.60;15.00;;;22.70;65.80;;;;;;5096235;28;20020;-88
2021/06/26 08:14:19;;;;;;;21.15;18.23;;;22.90;66.40;;;;;;5094732;28;20086;-85
2021/06/26 08:16:46;;;;;;;12.82;9.55;;;23.10;65.80;;;;;;5096030;28;20065;-87
2021/06/26 08:19:13;;;;;;;15.00;11.88;;;23.20;64.00;;;;;;5096664;28;20028;-84
2021/06/26 08:21:39;;;;;;;20.35;16.85;;;23.20;65.00;;;;;;5096710;28;20272;-84
2021/06/26 08:24:05;;;;;;;23.75;20.08;;;23.40;64.00;;;;;;5098903;28;20286;-88
2021/06/26 08:26:31;;;;;;;25.02;21.25;;;23.40;64.60;;;;;;5092101;28;20062;-85
2021/06/26 08:28:56;;;;;;;16.15;12.20;;;23.50;64.50;;;;;;5093779;28;20028;-85
2021/06/26 08:31:22;;;;;;;22.30;17.23;;;23.60;63.20;;;;;;5096834;28;20012;-87
2021/06/26 08:33:48;;;;;;;19.40;14.80;;;23.60;63.20;;;;;;5095268;28;20016;-87
2021/06/26 08:36:13;;;;;;;19.30;16.20;;;23.80;63.50;;;;;;5092854;28;20076;-84
2021/06/26 08:38:39;;;;;;;17.67;14.23;;;23.90;62.90;;;;;;5093033;28;20032;-86
2021/06/26 08:41:06;;;;;;;13.57;11.20;;;23.80;61.20;;;;;;5092943;28;20028;-86
2021/06/26 08:43:33;;;;;;;21.42;18.02;;;23.90;61.50;;;;;;5093643;28;20035;-85
2021/06/26 08:46:00;;;;;;;17.30;13.82;;;24.10;62.20;;;;;;5092464;28;20032;-86
2021/06/26 08:48:27;;;;;;;15.52;13.00;;;24.20;60.70;;;;;;5093476;28;20165;-84
2021/06/26 08:50:53;;;;;;;18.33;15.35;;;24.20;60.30;;;;;;5100502;28;20020;-83
2021/06/26 08:53:19;;;;;;;13.07;10.00;;;24.20;61.00;;;;;;5113274;28;20023;-86
2021/06/26 08:55:45;;;;;;;17.98;13.65;;;24.20;60.40;;;;;;5092708;28;20024;-83
2021/06/26 08:58:12;;;;;;;24.35;18.13;;;24.30;60.50;;;;;;5092560;28;20028;-82
2021/06/26 09:00:38;;;;;;;15.23;10.27;;;24.40;59.50;;;;;;5094454;28;20080;-85
2021/06/26 09:03:08;;;;;;;19.90;16.10;;;24.40;59.60;;;;;;5090755;28;20031;-83
2021/06/26 09:05:33;;;;;;;21.02;16.40;;;24.50;58.50;;;;;;5091731;28;20077;-82
2021/06/26 09:08:20;;;;;;;16.13;13.07;;;24.50;58.50;;;;;;5091539;28;20086;-85
2021/06/26 09:10:50;;;;;;;13.52;10.65;;;24.70;58.80;;;;;;5093818;28;20091;-83
2021/06/26 09:13:25;;;;;;;20.83;16.33;;;24.70;58.90;;;;;;5099350;28;20539;-83
2021/06/26 09:16:07;;;;;;;14.05;11.82;;;24.80;58.60;;;;;;5107362;28;20024;-83
2021/06/26 09:18:41;;;;;;;9.25;6.82;;;25.00;57.60;;;;;;5092860;28;20116;-85
2021/06/26 09:21:25;;;;;;;12.32;8.88;;;25.00;57.30;;;;;;5082918;28;20028;-84
2021/06/26 09:24:06;;;;;;;10.30;8.18;;;25.00;57.60;;;;;;5072360;28;20029;-84
2021/06/26 09:26:53;;;;;;;10.95;8.45;;;25.00;58.00;;;;;;5071992;28;20396;-83
2021/06/26 09:29:19;;;;;;;18.42;14.43;;;25.10;57.30;;;;;;5072067;28;20032;-84
2021/06/26 09:32:01;;;;;;;9.93;7.75;;;25.40;57.60;;;;;;5072304;28;20021;-83
2021/06/26 09:34:44;;;;;;;15.30;12.27;;;25.60;57.10;;;;;;5073205;28;20024;-84
2021/06/26 09:37:22;;;;;;;8.85;5.72;;;25.80;56.40;;;;;;5083227;28;20489;-83
2021/06/26 09:39:50;;;;;;;14.13;10.40;;;25.90;56.20;;;;;;5092553;28;20021;-83
2021/06/26 09:42:20;;;;;;;18.40;15.10;;;25.80;55.50;;;;;;5097136;28;20016;-85
2021/06/26 09:45:06;;;;;;;16.25;14.10;;;25.70;54.70;;;;;;5097791;28;20028;-84
2021/06/26 09:47:40;;;;;;;10.23;6.07;;;25.90;55.40;;;;;;5096666;28;20043;-83
2021/06/26 09:50:15;;;;;;;15.70;11.02;;;26.20;56.70;;;;;;5096853;28;20031;-85
2021/06/26 09:52:52;;;;;;;11.38;9.43;;;26.50;56.00;;;;;;5096531;28;20093;-84
2021/06/26 09:55:27;;;;;;;13.98;11.68;;;26.40;55.80;;;;;;5096619;28;20020;-85
2021/06/26 09:57:55;;;;;;;9.15;6.90;;;26.50;56.30;;;;;;5097735;28;20537;-86
2021/06/26 10:00:23;;;;;;;10.07;7.22;;;26.70;56.50;;;;;;5098285;28;20086;-84
2021/06/26 10:02:49;;;;;;;11.88;8.82;;;26.80;55.80;;;;;;5100132;28;20027;-86
2021/06/26 10:05:16;;;;;;;8.88;6.10;;;27.00;55.50;;;;;;5100646;28;20023;-85
2021/06/26 10:07:44;;;;;;;13.25;9.23;;;27.20;55.30;;;;;;5109437;28;20027;-87
2021/06/26 10:10:12;;;;;;;10.48;7.97;;;27.20;53.70;;;;;;5118855;28;20038;-86
2021/06/26 10:12:38;;;;;;;9.98;7.65;;;27.20;53.10;;;;;;5114021;28;20015;-86
2021/06/26 10:15:05;;;;;;;8.68;6.53;;;27.40;52.90;;;;;;5097880;28;20114;-86
2021/06/26 10:17:33;;;;;;;8.52;6.95;;;27.60;53.30;;;;;;5100254;28;20024;-86
2021/06/26 10:20:00;;;;;;;16.48;13.50;;;27.80;53.60;;;;;;5097927;28;20024;-84
2021/06/26 10:22:25;;;;;;;9.88;6.68;;;28.00;52.00;;;;;;5097219;28;20020;-86
2021/06/26 10:24:51;;;;;;;9.55;6.20;;;28.10;53.00;;;;;;5097791;28;20505;-86
2021/06/26 10:27:22;;;;;;;9.93;7.95;;;28.20;53.60;;;;;;5096437;28;20057;-87
2021/06/26 10:29:49;;;;;;;13.98;10.88;;;28.00;50.20;;;;;;5096850;28;20052;-86
2021/06/26 10:32:16;;;;;;;10.82;6.82;;;27.70;49.60;;;;;;5101746;28;20074;-86
2021/06/26 10:34:43;;;;;;;7.88;5.93;;;27.80;53.90;;;;;;5101607;28;20039;-84
2021/06/26 10:37:27;;;;;;;12.60;8.68;;;28.00;54.00;;;;;;5098415;28;20537;-87
2021/06/26 10:40:33;;;;;;;13.27;9.43;;;28.30;52.70;;;;;;5103317;28;20042;-86
2021/06/26 10:42:59;;;;;;;8.35;7.22;;;28.30;52.80;;;;;;5107631;28;20040;-86
2021/06/26 10:45:26;;;;;;;12.40;8.85;;;28.40;53.00;;;;;;5108254;28;20024;-87
2021/06/26 10:47:52;;;;;;;8.40;6.07;;;28.40;52.50;;;;;;5097341;28;20032;-88
2021/06/26 10:50:20;;;;;;;8.60;7.05;;;28.40;54.00;;;;;;5097677;28;20140;-87
2021/06/26 10:52:57;;;;;;;9.32;6.88;;;28.30;51.70;;;;;;5097218;28;20117;-85
2021/06/26 10:55:32;;;;;;;12.98;9.10;;;28.10;52.50;;;;;;5097448;28;20087;-88
2021/06/26 10:57:59;;;;;;;9.73;7.13;;;27.90;52.60;;;;;;5096415;28;20024;-85
2021/06/26 11:00:39;;;;;;;10.30;7.32;;;27.90;53.50;;;;;;5096544;28;20035;-87
2021/06/26 11:03:06;;;;;;;;;;;27.90;53.70;;;;;;5096412;28;20050;-88
2021/06/26 11:05:34;;;;;;;12.70;10.10;;;27.80;54.00;;;;;;5097148;28;19908;-88
2021/06/26 11:08:00;;;;;;;7.65;5.82;;;27.60;53.70;;;;;;5096481;28;20373;-87
2021/06/26 11:10:26;;;;;;;12.45;10.13;;;27.40;58.00;;;;;;5098372;28;20031;-89
2021/06/26 11:12:52;;;;;;;8.07;6.30;;;27.50;56.50;;;;;;5096708;28;20119;-87
2021/06/26 11:15:30;;;;;;;16.05;13.18;;;27.80;56.50;;;;;;5097181;28;20031;-86
2021/06/26 11:17:57;;;;;;;17.67;15.10;;;28.20;54.00;;;;;;5096099;28;20054;-87
2021/06/26 11:20:24;;;;;;;10.80;7.22;;;28.20;48.70;;;;;;5096793;28;20020;-87
2021/06/26 11:22:58;;;;;;;8.48;6.25;;;28.30;51.00;;;;;;5097078;28;20027;-89
2021/06/26 11:25:28;;;;;;;15.57;11.00;;;28.30;52.60;;;;;;5096599;28;20084;-88
2021/06/26 11:28:04;;;;;;;11.25;8.43;;;28.20;52.60;;;;;;5097593;28;20050;-87
2021/06/26 11:30:30;;;;;;;8.32;6.47;;;27.90;54.50;;;;;;5099146;28;20020;-88
2021/06/26 11:32:58;;;;;;;19.45;15.10;;;27.80;55.70;;;;;;5098282;28;20521;-89
2021/06/26 11:35:34;;;;;;;9.10;6.28;;;27.70;55.30;;;;;;5097727;28;20057;-88
2021/06/26 11:38:01;;;;;;;12.88;9.45;;;27.90;56.50;;;;;;5097403;28;20028;-88
2021/06/26 11:40:28;;;;;;;10.75;8.00;;;28.20;54.00;;;;;;5096907;28;20024;-89
2021/06/26 11:42:59;;;;;;;11.63;8.60;;;28.20;55.30;;;;;;5098067;28;20031;-89
2021/06/26 11:45:26;;;;;;;9.80;8.25;;;28.20;54.50;;;;;;5103331;28;20107;-88
2021/06/26 11:48:04;;;;;;;10.35;6.72;;;28.30;54.30;;;;;;5103108;28;20028;-87
2021/06/26 11:50:30;;;;;;;10.25;8.02;;;28.20;54.30;;;;;;5099995;28;20023;-89
2021/06/26 11:53:07;;;;;;;19.90;15.73;;;28.10;53.10;;;;;;5100667;28;20020;-89
2021/06/26 11:55:49;;;;;;;11.57;9.73;;;28.00;47.90;;;;;;5100520;28;20032;-88
2021/06/26 11:58:19;;;;;;;8.43;7.03;;;27.90;51.60;;;;;;5097777;28;20024;-89
2021/06/26 12:00:48;;;;;;;19.75;16.63;;;27.70;54.90;;;;;;5099299;28;20073;-91
2021/06/26 12:03:19;;;;;;;16.02;13.60;;;27.50;49.80;;;;;;5096288;28;20024;-89
2021/06/26 12:05:46;;;;;;;16.17;13.13;;;27.40;50.10;;;;;;5098069;28;20028;-89
2021/06/26 12:08:17;;;;;;;16.08;13.55;;;27.30;49.70;;;;;;5098762;28;20062;-89
2021/06/26 12:10:45;;;;;;;13.93;11.77;;;27.30;53.90;;;;;;5104817;28;20023;-88
2021/06/26 12:13:11;;;;;;;20.55;16.45;;;27.50;55.60;;;;;;5117572;28;20112;-88
2021/06/26 12:15:37;;;;;;;9.18;7.25;;;27.90;49.90;;;;;;5116728;28;20028;-89
2021/06/26 12:18:04;;;;;;;10.95;7.30;;;28.00;56.10;;;;;;5095992;28;20036;-87
2021/06/26 12:20:35;;;;;;;12.18;10.32;;;27.90;55.60;;;;;;5095740;28;20032;-89
2021/06/26 12:23:09;;;;;;;19.20;16.05;;;27.80;56.20;;;;;;5095602;28;20430;-89
2021/06/26 12:25:37;;;;;;;19.80;15.70;;;27.70;52.10;;;;;;5097160;28;20478;-89
2021/06/26 12:28:03;;;;;;;10.40;7.95;;;27.60;52.20;;;;;;5096693;28;20042;-90
2021/06/26 12:30:29;;;;;;;15.45;12.98;;;27.70;54.60;;;;;;5095208;28;20070;-90
2021/06/26 12:33:05;;;;;;;12.52;9.60;;;27.80;54.40;;;;;;5096697;28;20376;-88